createdAt,value
2023-02-20T00:00:49.688Z,0.00
2023-02-20T00:02:52.973Z,1.00
2023-02-20T00:04:54.739Z,0.00
2023-02-20T00:06:56.378Z,0.00
2023-02-20T00:08:58.053Z,1.00
2023-02-20T00:10:59.646Z,0.00
2023-02-20T00:13:01.494Z,0.67
2023-02-20T00:15:04.786Z,0.00
2023-02-20T00:17:06.428Z,0.00
2023-02-20T00:19:09.803Z,1.33
2023-02-20T00:21:11.488Z,0.00
2023-02-20T00:23:13.059Z,0.00
2023-02-20T00:25:15.898Z,0.33
2023-02-20T00:27:17.748Z,0.33
2023-02-20T00:29:21.047Z,0.00
2023-02-20T00:31:23.374Z,0.00
2023-02-20T00:33:25.188Z,1.00
2023-02-20T00:35:28.511Z,0.00
2023-02-20T00:37:30.108Z,0.00
2023-02-20T00:39:32.629Z,0.00
2023-02-20T00:41:34.446Z,0.00
2023-02-20T00:43:36.020Z,0.00
2023-02-20T00:45:37.600Z,0.00
2023-02-20T00:47:39.229Z,1.00
2023-02-20T00:49:40.864Z,0.67
2023-02-20T00:51:43.852Z,0.00
2023-02-20T00:53:45.471Z,0.00
2023-02-20T00:55:47.153Z,0.67
2023-02-20T00:57:48.717Z,0.00
2023-02-20T00:59:50.368Z,0.00
2023-02-20T01:01:52.099Z,1.00
2023-02-20T01:03:53.907Z,0.00
2023-02-20T01:05:55.628Z,1.00
2023-02-20T01:07:58.490Z,0.00
2023-02-20T01:10:00.191Z,0.00
2023-02-20T01:12:02.552Z,1.00
2023-02-20T01:14:04.827Z,0.00
2023-02-20T01:16:07.147Z,0.00
2023-02-20T01:18:09.213Z,0.33
2023-02-20T01:20:11.968Z,0.33
2023-02-20T01:22:13.533Z,0.00
2023-02-20T01:24:18.123Z,0.00
2023-02-20T01:26:19.772Z,0.00
2023-02-20T01:28:21.336Z,0.00
2023-02-20T01:30:23.058Z,1.00
2023-02-20T01:32:25.176Z,0.00
2023-02-20T01:34:31.704Z,1.00
2023-02-20T01:36:33.764Z,0.00
2023-02-20T01:38:35.352Z,0.00
2023-02-20T01:40:38.306Z,0.00
2023-02-20T01:42:39.993Z,0.00
2023-02-20T01:44:41.877Z,0.33
2023-02-20T01:46:53.845Z,0.67
2023-02-20T01:49:01.126Z,1.00
2023-02-20T01:51:03.043Z,0.00
2023-02-20T01:53:08.384Z,0.33
2023-02-20T01:55:13.623Z,0.00
2023-02-20T01:57:20.333Z,0.33
2023-02-20T01:59:23.610Z,1.00
2023-02-20T02:01:25.162Z,0.00
2023-02-20T02:03:31.146Z,1.33
2023-02-20T02:05:34.982Z,0.00
2023-02-20T02:07:37.057Z,1.00
2023-02-20T02:09:47.726Z,0.00
2023-02-20T02:11:50.400Z,1.00
2023-02-20T02:13:53.658Z,1.00
2023-02-20T02:16:05.366Z,1.00
2023-02-20T02:18:20.540Z,0.00
2023-02-20T02:20:54.897Z,0.00
2023-02-20T02:23:29.690Z,1.00
2023-02-20T02:25:42.654Z,0.33
2023-02-20T02:28:04.073Z,0.00
2023-02-20T02:30:49.256Z,0.00
2023-02-20T02:33:23.676Z,0.33
2023-02-20T02:35:43.664Z,0.33
2023-02-20T02:37:57.789Z,1.00
2023-02-20T02:40:04.001Z,1.00
2023-02-20T02:42:14.623Z,0.00
2023-02-20T02:44:22.437Z,1.67
2023-02-20T02:46:30.977Z,1.00
2023-02-20T02:48:37.320Z,1.00
2023-02-20T02:50:43.347Z,0.00
2023-02-20T02:52:46.157Z,2.00
2023-02-20T02:54:49.973Z,0.00
2023-02-20T02:56:52.093Z,0.00
2023-02-20T02:58:54.993Z,1.00
2023-02-20T03:01:00.404Z,0.33
2023-02-20T03:03:09.331Z,0.33
2023-02-20T03:05:14.774Z,0.67
2023-02-20T03:07:18.391Z,1.00
2023-02-20T03:09:26.072Z,1.00
2023-02-20T03:11:31.982Z,1.67
2023-02-20T03:13:44.315Z,1.00
2023-02-20T03:15:52.892Z,1.67
2023-02-20T03:18:03.187Z,1.00
2023-02-20T03:20:08.915Z,1.00
2023-02-20T03:22:17.036Z,0.33
2023-02-20T03:24:21.789Z,1.00
2023-02-20T03:26:31.624Z,0.67
2023-02-20T03:28:38.726Z,1.00
2023-02-20T03:30:46.141Z,2.00
2023-02-20T03:32:51.831Z,1.00
2023-02-20T03:34:57.308Z,1.00
2023-02-20T03:37:03.432Z,1.67
2023-02-20T03:39:08.817Z,1.00
2023-02-20T03:41:14.242Z,1.33
2023-02-20T03:43:19.940Z,1.00
2023-02-20T03:45:25.947Z,1.00
2023-02-20T03:47:29.389Z,2.00
2023-02-20T03:49:35.146Z,1.00
2023-02-20T03:51:37.071Z,1.67
2023-02-20T03:53:40.021Z,2.00
2023-02-20T03:55:41.726Z,2.00
2023-02-20T03:57:48.717Z,2.00
2023-02-20T03:59:55.119Z,2.00
2023-02-20T04:02:00.066Z,1.00
2023-02-20T04:04:03.900Z,1.33
2023-02-20T04:06:08.208Z,1.00
2023-02-20T04:08:14.439Z,2.00
2023-02-20T04:10:22.096Z,2.33
2023-02-20T04:12:27.154Z,5.00
2023-02-20T04:14:31.533Z,2.00
2023-02-20T04:16:40.678Z,2.33
2023-02-20T04:18:42.516Z,3.00
2023-02-20T04:20:44.956Z,3.00
2023-02-20T04:22:50.566Z,2.33
2023-02-20T04:24:57.439Z,2.00
2023-02-20T04:26:59.283Z,2.33
2023-02-20T04:29:01.470Z,3.00
2023-02-20T04:31:03.768Z,5.00
2023-02-20T04:33:06.763Z,2.67
2023-02-20T04:35:17.211Z,2.67
2023-02-20T04:37:20.318Z,5.00
2023-02-20T04:39:22.192Z,3.67
2023-02-20T04:41:23.923Z,3.00
2023-02-20T04:43:25.649Z,5.00
2023-02-20T04:45:27.479Z,6.00
2023-02-20T04:47:29.284Z,5.00
2023-02-20T04:49:33.563Z,5.00
2023-02-20T04:51:35.334Z,5.33
2023-02-20T04:53:37.056Z,6.00
2023-02-20T04:55:38.630Z,4.33
2023-02-20T04:57:40.240Z,5.67
2023-02-20T04:59:42.518Z,6.00
2023-02-20T05:01:44.179Z,3.00
2023-02-20T05:03:45.788Z,5.67
2023-02-20T05:05:48.920Z,6.00
2023-02-20T05:07:55.105Z,3.67
2023-02-20T05:09:56.714Z,5.00
2023-02-20T05:11:58.364Z,6.00
2023-02-20T05:14:00.251Z,7.00
2023-02-20T05:16:01.961Z,3.67
2023-02-20T05:18:04.341Z,5.67
2023-02-20T05:20:07.285Z,6.33
2023-02-20T05:22:12.173Z,6.67
2023-02-20T05:24:16.760Z,5.33
2023-02-20T05:26:21.094Z,5.00
2023-02-20T05:28:22.958Z,7.00
2023-02-20T05:30:24.577Z,2.67
2023-02-20T05:32:28.415Z,5.67
2023-02-20T05:34:29.971Z,5.67
2023-02-20T05:36:31.540Z,5.33
2023-02-20T05:38:34.856Z,2.33
2023-02-20T05:40:36.534Z,7.00
2023-02-20T05:42:38.450Z,1.00
2023-02-20T05:44:40.170Z,7.00
2023-02-20T05:46:42.648Z,7.00
2023-02-20T05:48:48.300Z,6.67
2023-02-20T05:50:51.370Z,5.67
2023-02-20T05:52:53.038Z,6.33
2023-02-20T05:54:55.910Z,8.33
2023-02-20T05:56:57.588Z,3.67
2023-02-20T05:58:59.407Z,7.33
2023-02-20T06:01:00.975Z,5.67
2023-02-20T06:03:05.782Z,7.33
2023-02-20T06:05:08.053Z,6.00
2023-02-20T06:07:09.696Z,7.00
2023-02-20T06:09:12.993Z,7.00
2023-02-20T06:11:16.958Z,6.67
2023-02-20T06:13:18.533Z,7.33
2023-02-20T06:15:20.221Z,7.67
2023-02-20T06:17:21.768Z,5.00
2023-02-20T06:19:26.165Z,7.00
2023-02-20T06:21:28.131Z,6.67
2023-02-20T06:23:29.700Z,7.00
2023-02-20T06:25:31.537Z,7.00
2023-02-20T06:27:35.061Z,6.00
2023-02-20T06:29:36.661Z,7.67
2023-02-20T06:31:38.456Z,8.00
2023-02-20T06:33:40.081Z,5.33
2023-02-20T06:35:41.873Z,7.33
2023-02-20T06:37:44.604Z,7.67
2023-02-20T06:39:46.132Z,1.33
2023-02-20T06:41:48.047Z,8.00
2023-02-20T06:43:51.149Z,5.00
2023-02-20T06:45:52.700Z,10.00
2023-02-20T06:47:54.243Z,10.67
2023-02-20T06:49:56.392Z,8.00
2023-02-20T06:51:58.156Z,6.00
2023-02-20T06:54:00.823Z,8.00
2023-02-20T06:56:05.982Z,7.67
2023-02-20T06:58:08.470Z,7.67
2023-02-20T07:00:14.904Z,1.00
2023-02-20T07:02:17.090Z,6.67
2023-02-20T07:04:20.531Z,10.00
2023-02-20T07:06:23.514Z,7.33
2023-02-20T07:08:25.346Z,8.67
2023-02-20T07:10:26.890Z,7.00
2023-02-20T07:12:30.165Z,7.33
2023-02-20T07:14:32.014Z,8.00
2023-02-20T07:16:35.331Z,6.67
2023-02-20T07:18:37.133Z,8.00
2023-02-20T07:20:39.007Z,7.33
2023-02-20T07:22:49.818Z,4.00
2023-02-20T07:24:51.981Z,7.00
2023-02-20T07:28:55.376Z,8.33
2023-02-20T07:30:56.942Z,7.33
2023-02-20T07:33:00.350Z,4.33
2023-02-20T07:35:06.180Z,8.00
2023-02-20T07:37:09.080Z,9.33
2023-02-20T07:39:12.606Z,8.00
2023-02-20T07:41:15.518Z,3.67
2023-02-20T07:43:17.152Z,8.00
2023-02-20T07:45:18.850Z,8.00
2023-02-20T07:47:20.387Z,8.00
2023-02-20T07:49:23.993Z,7.67
2023-02-20T07:51:25.823Z,9.67
2023-02-20T07:53:27.617Z,8.00
2023-02-20T07:55:29.157Z,7.00
2023-02-20T07:57:33.376Z,9.33
2023-02-20T07:59:35.047Z,8.67
2023-02-20T08:01:36.889Z,9.33
2023-02-20T08:03:38.543Z,6.33
2023-02-20T08:05:49.046Z,13.00
2023-02-20T08:07:51.469Z,11.00
2023-02-20T08:09:53.085Z,9.00
2023-02-20T08:11:54.705Z,12.33
2023-02-20T08:13:56.222Z,12.00
2023-02-20T08:15:58.300Z,8.00
2023-02-20T08:18:00.224Z,8.33
2023-02-20T08:20:01.751Z,11.00
2023-02-20T08:22:05.235Z,6.00
2023-02-20T08:24:07.823Z,12.67
2023-02-20T08:26:09.994Z,13.33
2023-02-20T08:28:12.173Z,11.33
2023-02-20T08:30:18.315Z,17.67
2023-02-20T08:32:20.046Z,11.00
2023-02-20T08:34:21.727Z,11.00
2023-02-20T08:36:23.562Z,9.00
2023-02-20T08:38:30.123Z,15.33
2023-02-20T08:40:31.713Z,14.00
2023-02-20T08:42:34.959Z,9.67
2023-02-20T08:44:37.043Z,12.33
2023-02-20T08:46:45.218Z,9.00
2023-02-20T08:48:46.829Z,8.67
2023-02-20T08:50:48.496Z,12.67
2023-02-20T08:52:50.021Z,17.00
2023-02-20T08:54:53.348Z,13.00
2023-02-20T08:56:55.056Z,12.00
2023-02-20T08:58:56.597Z,11.33
2023-02-20T09:00:59.173Z,12.33
2023-02-20T09:03:01.109Z,16.33
2023-02-20T09:05:02.665Z,3.67
2023-02-20T09:07:04.211Z,13.00
2023-02-20T09:09:06.109Z,10.67
2023-02-20T09:11:10.148Z,12.00
2023-02-20T09:13:12.391Z,14.67
2023-02-20T09:15:14.401Z,12.67
2023-02-20T09:17:16.666Z,16.00
2023-02-20T09:19:18.447Z,14.33
2023-02-20T09:21:20.107Z,10.33
2023-02-20T09:23:21.617Z,14.33
2023-02-20T09:25:23.660Z,11.33
2023-02-20T09:27:26.777Z,8.33
2023-02-20T09:29:28.418Z,13.00
2023-02-20T09:31:30.415Z,16.33
2023-02-20T09:33:32.119Z,15.00
2023-02-20T09:35:33.810Z,12.33
2023-02-20T09:37:35.579Z,19.67
2023-02-20T09:39:37.265Z,15.33
2023-02-20T09:41:54.851Z,15.67
2023-02-20T09:44:08.690Z,12.33
2023-02-20T09:46:15.776Z,14.00
2023-02-20T09:48:28.862Z,16.00
2023-02-20T09:50:36.048Z,6.00
2023-02-20T09:52:39.570Z,14.67
2023-02-20T09:54:46.224Z,19.00
2023-02-20T09:56:52.817Z,14.33
2023-02-20T09:59:02.886Z,18.00
2023-02-20T10:01:07.205Z,18.33
2023-02-20T10:03:20.207Z,20.33
2023-02-20T10:05:25.666Z,14.00
2023-02-20T10:07:30.892Z,14.00
2023-02-20T10:09:32.557Z,16.00
2023-02-20T10:11:46.511Z,19.67
2023-02-20T10:14:00.548Z,10.67
2023-02-20T10:16:13.434Z,15.33
2023-02-20T10:18:23.712Z,16.33
2023-02-20T10:20:36.299Z,21.00
2023-02-20T10:22:49.219Z,10.00
2023-02-20T10:25:08.502Z,20.33
2023-02-20T10:27:23.177Z,15.00
2023-02-20T10:29:27.725Z,19.00
2023-02-20T10:31:42.184Z,16.00
2023-02-20T10:33:49.082Z,18.75
2023-02-20T10:35:56.717Z,19.00
2023-02-20T10:38:03.060Z,16.75
2023-02-20T10:40:14.682Z,16.33
2023-02-20T10:42:23.588Z,18.33
2023-02-20T10:44:30.120Z,15.67
2023-02-20T10:46:49.005Z,16.00
2023-02-20T10:48:54.712Z,19.67
2023-02-20T10:51:06.212Z,17.67
2023-02-20T10:53:19.626Z,17.33
2023-02-20T10:55:28.570Z,17.00
2023-02-20T10:57:36.849Z,16.50
2023-02-20T10:59:45.541Z,15.00
2023-02-20T11:01:55.062Z,17.33
2023-02-20T11:04:02.879Z,15.00
2023-02-20T11:06:07.609Z,15.00
2023-02-20T11:08:09.259Z,16.25
2023-02-20T11:10:11.028Z,16.00
2023-02-20T11:12:24.166Z,15.75
2023-02-20T11:14:40.345Z,14.00
2023-02-20T11:16:48.630Z,13.75
2023-02-20T11:18:55.792Z,15.75
2023-02-20T11:20:57.618Z,16.00
2023-02-20T11:23:00.681Z,9.00
2023-02-20T11:25:15.377Z,17.25
2023-02-20T11:27:20.571Z,14.25
2023-02-20T11:29:23.967Z,16.00
2023-02-20T11:31:26.177Z,15.25
2023-02-20T11:33:30.952Z,14.25
2023-02-20T11:35:36.728Z,14.50
2023-02-20T11:37:52.722Z,15.50
2023-02-20T11:39:59.593Z,15.25
2023-02-20T11:42:11.253Z,13.75
2023-02-20T11:44:25.433Z,11.50
2023-02-20T11:46:27.027Z,15.25
2023-02-20T11:48:28.589Z,10.75
2023-02-20T11:50:40.363Z,11.00
2023-02-20T11:53:00.494Z,5.00
2023-02-20T11:55:18.477Z,12.25
2023-02-20T11:57:25.478Z,11.75
2023-02-20T11:59:31.940Z,11.00
2023-02-20T12:01:35.792Z,13.25
2023-02-20T12:03:37.415Z,14.25
2023-02-20T12:05:42.182Z,8.75
2023-02-20T12:07:45.782Z,9.25
2023-02-20T12:09:51.502Z,9.50
2023-02-20T12:11:55.595Z,10.00
2023-02-20T12:14:00.168Z,13.75
2023-02-20T12:16:18.694Z,10.75
2023-02-20T12:18:36.334Z,14.00
2023-02-20T12:20:48.426Z,10.50
2023-02-20T12:22:58.270Z,11.00
2023-02-20T12:25:25.127Z,8.00
2023-02-20T12:27:40.045Z,14.00
2023-02-20T12:29:51.305Z,9.00
2023-02-20T12:32:07.343Z,9.75
2023-02-20T12:34:21.152Z,9.00
2023-02-20T12:36:34.030Z,14.25
2023-02-20T12:38:46.205Z,15.00
2023-02-20T12:41:10.656Z,6.00
2023-02-20T12:43:25.644Z,8.25
2023-02-20T12:45:37.522Z,11.50
2023-02-20T12:47:41.836Z,9.25
2023-02-20T12:49:54.425Z,7.50
2023-02-20T12:52:03.063Z,9.00
2023-02-20T12:54:20.727Z,6.00
2023-02-20T12:56:37.083Z,7.75
2023-02-20T12:58:48.362Z,7.25
2023-02-20T13:00:54.729Z,9.25
2023-02-20T13:03:02.604Z,7.00
2023-02-20T13:05:07.555Z,7.75
2023-02-20T13:07:18.485Z,8.00
2023-02-20T13:09:24.335Z,5.00
2023-02-20T13:11:29.913Z,4.00
2023-02-20T13:13:39.157Z,5.50
2023-02-20T13:15:48.092Z,4.00
2023-02-20T13:17:57.146Z,4.00
2023-02-20T13:20:10.974Z,2.25
2023-02-20T13:22:15.269Z,4.50
2023-02-20T13:24:32.357Z,4.25
2023-02-20T13:26:48.858Z,3.75
2023-02-20T13:28:51.253Z,10.50
2023-02-20T13:31:12.308Z,3.00
2023-02-20T13:33:22.316Z,4.25
2023-02-20T13:35:46.661Z,4.00
2023-02-20T13:37:54.053Z,3.00
2023-02-20T13:39:55.668Z,2.75
2023-02-20T13:41:59.565Z,4.00
2023-02-20T13:44:33.809Z,3.50
2023-02-20T13:46:57.196Z,4.50
2023-02-20T13:48:58.739Z,3.50
2023-02-20T13:51:34.605Z,3.00
2023-02-20T13:53:37.872Z,3.25
2023-02-20T13:55:41.656Z,3.25
2023-02-20T13:57:46.294Z,3.00
2023-02-20T13:59:51.303Z,2.00
2023-02-20T14:01:58.632Z,1.25
2023-02-20T14:04:01.354Z,4.00
2023-02-20T14:06:06.300Z,3.00
2023-02-20T14:08:17.292Z,2.00
2023-02-20T14:10:27.268Z,4.00
2023-02-20T14:12:28.908Z,4.00
2023-02-20T14:14:33.748Z,1.25
2023-02-20T14:16:37.480Z,3.25
2023-02-20T14:18:39.245Z,4.00
2023-02-20T14:20:42.043Z,4.25
2023-02-20T14:22:43.854Z,7.00
2023-02-20T14:24:45.470Z,2.00
2023-02-20T14:26:49.696Z,4.75
2023-02-20T14:28:53.721Z,2.75
2023-02-20T14:31:23.269Z,3.25
2023-02-20T14:33:28.742Z,3.00
2023-02-20T14:35:56.760Z,2.00
2023-02-20T14:38:07.666Z,2.00
2023-02-20T14:40:16.160Z,4.00
2023-02-20T14:42:24.280Z,2.25
2023-02-20T14:44:27.249Z,1.50
2023-02-20T14:46:30.797Z,3.00
2023-02-20T14:48:34.128Z,0.25
2023-02-20T14:50:36.600Z,1.75
2023-02-20T14:52:38.460Z,1.00
2023-02-20T14:54:42.085Z,1.00
2023-02-20T14:56:44.464Z,1.25
2023-02-20T14:58:47.598Z,1.00
2023-02-20T15:00:49.631Z,2.00
2023-02-20T15:02:55.540Z,1.00
2023-02-20T15:05:04.331Z,1.00
2023-02-20T15:07:07.917Z,1.00
2023-02-20T15:09:21.982Z,0.00
2023-02-20T15:11:25.549Z,0.00
2023-02-20T15:13:34.890Z,0.00
2023-02-20T15:15:41.186Z,0.75
2023-02-20T15:17:44.427Z,0.25
2023-02-20T15:19:46.528Z,1.00
2023-02-20T15:21:57.632Z,2.25
2023-02-20T15:24:17.108Z,0.00
2023-02-20T15:26:31.384Z,1.00
2023-02-20T15:28:33.559Z,1.00
2023-02-20T15:30:35.742Z,0.00
2023-02-20T15:32:40.632Z,0.00
2023-02-20T15:34:42.702Z,1.00
2023-02-20T15:36:44.514Z,1.00
2023-02-20T15:38:46.210Z,2.00
2023-02-20T15:40:47.871Z,1.00
2023-02-20T15:42:50.545Z,0.00
2023-02-20T15:44:52.086Z,1.00
2023-02-20T15:46:53.875Z,0.25
2023-02-20T15:48:57.438Z,0.00
2023-02-20T15:50:59.635Z,1.00
2023-02-20T15:53:02.959Z,1.75
2023-02-20T15:55:05.296Z,4.00
2023-02-20T15:57:15.621Z,0.50
2023-02-20T15:59:17.436Z,0.25
2023-02-20T16:01:19.307Z,0.00
2023-02-20T16:03:21.742Z,1.00
2023-02-20T16:05:25.144Z,0.00
2023-02-20T16:07:26.801Z,0.00
2023-02-20T16:09:29.480Z,1.00
2023-02-20T16:11:39.165Z,1.50
2023-02-20T16:13:44.424Z,0.00
2023-02-20T16:15:46.111Z,1.00
2023-02-20T16:17:48.717Z,1.00
2023-02-20T16:19:50.267Z,1.25
2023-02-20T16:21:59.070Z,2.00
2023-02-20T16:24:01.352Z,2.00
2023-02-20T16:26:02.962Z,2.00
2023-02-20T16:28:06.447Z,2.00
2023-02-20T16:30:27.204Z,2.00
2023-02-20T16:32:34.443Z,1.00
2023-02-20T16:34:36.205Z,1.50
2023-02-20T16:36:38.353Z,0.50
2023-02-20T16:38:41.380Z,1.00
2023-02-20T16:40:43.336Z,1.00
2023-02-20T16:42:48.330Z,0.00
2023-02-20T16:44:50.638Z,0.00
2023-02-20T16:46:52.284Z,0.00
2023-02-20T16:48:53.957Z,0.75
2023-02-20T16:50:55.678Z,0.75
2023-02-20T16:52:58.791Z,0.75
2023-02-20T16:55:02.594Z,1.00
2023-02-20T16:57:04.299Z,1.00
2023-02-20T16:59:05.904Z,1.00
2023-02-20T17:01:07.729Z,2.00
2023-02-20T17:03:10.063Z,0.50
2023-02-20T17:05:13.023Z,1.00
2023-02-20T17:07:14.984Z,0.00
2023-02-20T17:09:16.685Z,1.00
2023-02-20T17:11:19.724Z,1.00
2023-02-20T17:13:21.544Z,1.00
2023-02-20T17:15:24.866Z,1.00
2023-02-20T17:17:26.664Z,0.00
2023-02-20T17:19:28.451Z,1.00
2023-02-20T17:21:30.241Z,0.00
2023-02-20T17:23:31.909Z,0.00
2023-02-20T17:25:34.095Z,0.00
2023-02-20T17:27:37.090Z,0.50
2023-02-20T17:29:39.238Z,1.00
2023-02-20T17:31:41.221Z,2.00
2023-02-20T17:33:43.193Z,2.00
2023-02-20T17:35:45.015Z,2.00
2023-02-20T17:37:46.791Z,1.00
2023-02-20T17:39:48.422Z,0.00
2023-02-20T17:41:51.315Z,1.00
2023-02-20T17:43:54.486Z,1.00
2023-02-20T17:45:56.265Z,0.00
2023-02-20T17:47:57.891Z,0.00
2023-02-20T17:49:59.992Z,1.00
2023-02-20T17:52:01.740Z,0.75
2023-02-20T17:54:03.808Z,0.00
2023-02-20T17:56:06.089Z,1.00
2023-02-20T17:58:07.696Z,0.25
2023-02-20T18:00:13.219Z,1.00
2023-02-20T18:02:15.950Z,0.50
2023-02-20T18:04:19.609Z,1.00
2023-02-20T18:06:23.613Z,1.00
2023-02-20T18:08:25.292Z,1.00
2023-02-20T18:10:27.338Z,0.25
2023-02-20T18:12:29.349Z,1.00
2023-02-20T18:14:31.173Z,0.50
2023-02-20T18:16:34.659Z,0.00
2023-02-20T18:18:36.511Z,1.50
2023-02-20T18:20:38.267Z,1.00
2023-02-20T18:22:40.265Z,0.50
2023-02-20T18:24:41.982Z,1.00
2023-02-20T18:26:43.785Z,0.50
2023-02-20T18:28:45.759Z,0.75
2023-02-20T18:30:47.757Z,0.00
2023-02-20T18:32:50.841Z,2.25
2023-02-20T18:34:52.658Z,2.25
2023-02-20T18:36:54.813Z,0.00
2023-02-20T18:38:57.441Z,1.50
2023-02-20T18:40:59.262Z,0.00
2023-02-20T18:43:00.847Z,1.25
2023-02-20T18:45:02.869Z,2.00
2023-02-20T18:47:04.606Z,2.50
2023-02-20T18:49:07.641Z,2.75
2023-02-20T18:51:09.266Z,2.00
2023-02-20T18:53:11.348Z,1.00
2023-02-20T18:55:13.463Z,0.75
2023-02-20T18:57:15.234Z,1.00
2023-02-20T18:59:17.895Z,1.00
2023-02-20T19:01:20.109Z,2.00
2023-02-20T19:03:21.854Z,2.50
2023-02-20T19:05:25.591Z,0.00
2023-02-20T19:07:27.369Z,2.00
2023-02-20T19:09:29.216Z,1.50
2023-02-20T19:11:30.982Z,1.75
2023-02-20T19:13:32.772Z,1.00
2023-02-20T19:15:34.497Z,1.00
2023-02-20T19:17:38.108Z,1.00
2023-02-20T19:19:39.760Z,0.00
2023-02-20T19:21:42.711Z,0.75
2023-02-20T19:23:44.572Z,1.50
2023-02-20T19:25:47.355Z,1.75
2023-02-20T19:27:49.303Z,1.00
2023-02-20T19:29:51.306Z,1.00
2023-02-20T19:31:53.186Z,0.00
2023-02-20T19:33:54.793Z,0.00
2023-02-20T19:35:56.444Z,0.00
2023-02-20T19:37:59.654Z,0.00
2023-02-20T19:40:01.793Z,1.00
2023-02-20T19:42:03.734Z,0.50
2023-02-20T19:44:05.900Z,1.00
2023-02-20T19:46:14.387Z,1.00
2023-02-20T19:48:16.177Z,1.00
2023-02-20T19:50:18.257Z,1.00
2023-02-20T19:52:20.013Z,1.00
2023-02-20T19:54:25.728Z,0.00
2023-02-20T19:56:28.718Z,0.75
2023-02-20T19:58:30.358Z,3.25
2023-02-20T20:00:32.350Z,2.50
2023-02-20T20:02:34.056Z,1.50
2023-02-20T20:04:35.750Z,0.75
2023-02-20T20:06:37.590Z,1.75
2023-02-20T20:08:43.694Z,0.00
2023-02-20T20:10:54.650Z,1.00
2023-02-20T20:12:57.289Z,2.25
2023-02-20T20:14:59.084Z,0.75
2023-02-20T20:17:01.594Z,0.00
2023-02-20T20:19:04.484Z,1.00
2023-02-20T20:21:06.193Z,0.00
2023-02-20T20:23:07.904Z,0.00
2023-02-20T20:25:11.305Z,0.00
2023-02-20T20:27:14.500Z,0.00
2023-02-20T20:29:16.163Z,0.50
2023-02-20T20:31:18.804Z,1.00
2023-02-20T20:33:20.392Z,0.00
2023-02-20T20:35:23.949Z,0.25
2023-02-20T20:37:26.634Z,0.00
2023-02-20T20:39:28.707Z,1.00
2023-02-20T20:41:39.390Z,2.50
2023-02-20T20:43:47.699Z,2.75
2023-02-20T20:45:49.525Z,1.00
2023-02-20T20:47:51.333Z,1.00
2023-02-20T20:49:53.855Z,0.00
2023-02-20T20:51:55.598Z,1.00
2023-02-20T20:53:57.284Z,3.00
2023-02-20T20:55:59.139Z,0.00
2023-02-20T20:58:01.799Z,0.00
2023-02-20T21:00:07.202Z,0.00
2023-02-20T21:02:09.293Z,1.50
2023-02-20T21:04:11.611Z,0.25
2023-02-20T21:06:16.186Z,1.00
2023-02-20T21:08:17.821Z,0.75
2023-02-20T21:10:21.420Z,0.00
2023-02-20T21:12:23.045Z,1.50
2023-02-20T21:14:24.637Z,0.00
2023-02-20T21:16:27.736Z,1.50
2023-02-20T21:18:29.446Z,0.00
2023-02-20T21:20:32.802Z,0.00
2023-02-20T21:22:35.700Z,1.00
2023-02-20T21:24:37.995Z,0.50
2023-02-20T21:26:39.731Z,1.00
2023-02-20T21:28:41.586Z,1.50
2023-02-20T21:30:43.456Z,0.00
2023-02-20T21:32:47.646Z,0.00
2023-02-20T21:34:49.480Z,0.50
2023-02-20T21:36:51.219Z,1.00
2023-02-20T21:38:52.791Z,2.00
2023-02-20T21:40:54.467Z,0.50
2023-02-20T21:42:56.013Z,0.00
2023-02-20T21:44:57.603Z,1.00
2023-02-20T21:47:01.664Z,1.25
2023-02-20T21:49:04.780Z,0.00
2023-02-20T21:51:06.411Z,0.50
2023-02-20T21:53:08.094Z,0.00
2023-02-20T21:55:11.912Z,0.50
2023-02-20T21:57:14.232Z,0.00
2023-02-20T21:59:15.873Z,0.50
2023-02-20T22:01:17.535Z,0.00
2023-02-20T22:03:19.512Z,0.00
2023-02-20T22:05:22.807Z,0.00
2023-02-20T22:07:24.625Z,0.75
2023-02-20T22:09:26.181Z,1.00
2023-02-20T22:11:27.773Z,0.00
2023-02-20T22:13:29.334Z,0.50
2023-02-20T22:15:31.185Z,0.00
2023-02-20T22:17:35.341Z,0.00
2023-02-20T22:19:37.014Z,0.00
2023-02-20T22:21:40.294Z,0.25
2023-02-20T22:23:42.043Z,0.00
2023-02-20T22:25:43.934Z,0.75
2023-02-20T22:27:46.779Z,0.00
2023-02-20T22:29:48.373Z,0.00
2023-02-20T22:31:50.460Z,0.00
2023-02-20T22:33:52.223Z,0.75
2023-02-20T22:35:53.908Z,0.00
2023-02-20T22:37:57.186Z,0.00
2023-02-20T22:39:59.190Z,0.00
2023-02-20T22:42:01.064Z,0.00
2023-02-20T22:44:02.658Z,0.25
2023-02-20T22:46:05.187Z,0.00
2023-02-20T22:48:07.116Z,0.00
2023-02-20T22:50:09.662Z,1.00
2023-02-20T22:52:11.345Z,0.00
2023-02-20T22:54:14.751Z,0.00
2023-02-20T22:56:17.844Z,1.25
2023-02-20T22:58:19.837Z,0.75
2023-02-20T23:00:21.432Z,0.00
2023-02-20T23:02:23.054Z,0.00
2023-02-20T23:04:24.777Z,0.50
2023-02-20T23:06:27.498Z,1.00
2023-02-20T23:08:29.025Z,0.00
2023-02-20T23:10:32.606Z,1.00
2023-02-20T23:12:34.253Z,1.25
2023-02-20T23:14:35.882Z,0.25
2023-02-20T23:16:37.488Z,1.75
2023-02-20T23:18:39.225Z,1.00
2023-02-20T23:20:40.886Z,1.00
2023-02-20T23:22:42.746Z,1.00
2023-02-20T23:24:44.722Z,1.50
2023-02-20T23:26:52.603Z,1.00
2023-02-20T23:28:54.265Z,0.00
2023-02-20T23:30:55.881Z,1.00
2023-02-20T23:32:57.705Z,1.00
2023-02-20T23:34:59.386Z,1.00
2023-02-20T23:37:00.983Z,1.00
2023-02-20T23:39:02.525Z,1.00
2023-02-20T23:41:06.595Z,0.00
2023-02-20T23:43:09.679Z,0.50
2023-02-20T23:45:11.340Z,0.00
2023-02-20T23:47:12.904Z,0.00
2023-02-20T23:49:14.591Z,0.50
2023-02-20T23:51:16.484Z,1.25
2023-02-20T23:53:18.263Z,1.00
2023-02-20T23:55:19.858Z,0.25
2023-02-20T23:57:21.608Z,0.50
2023-02-20T23:59:24.839Z,1.00
